createdAt,value
2023-04-16T00:01:08.410Z,11.89
2023-04-16T00:03:39.365Z,11.85
2023-04-16T00:06:12.759Z,11.81
2023-04-16T00:08:43.924Z,11.79
2023-04-16T00:11:13.734Z,11.74
2023-04-16T00:13:45.730Z,11.73
2023-04-16T00:16:18.128Z,11.74
2023-04-16T00:18:48.055Z,11.79
2023-04-16T00:21:17.649Z,11.81
2023-04-16T00:23:47.524Z,11.81
2023-04-16T00:26:17.146Z,11.83
2023-04-16T00:28:47.458Z,11.88
2023-04-16T00:31:17.254Z,11.92
2023-04-16T00:33:46.957Z,11.97
2023-04-16T00:36:17.894Z,12.00
2023-04-16T00:38:47.453Z,12.02
2023-04-16T00:41:17.841Z,12.04
2023-04-16T00:43:47.438Z,12.06
2023-04-16T00:46:17.408Z,12.06
2023-04-16T00:48:47.578Z,12.04
2023-04-16T00:51:20.228Z,11.96
2023-04-16T00:53:49.935Z,11.91
2023-04-16T00:56:23.146Z,11.91
2023-04-16T00:58:52.661Z,11.94
2023-04-16T01:01:22.198Z,11.96
2023-04-16T01:03:52.406Z,11.96
2023-04-16T01:06:22.628Z,11.91
2023-04-16T01:08:53.561Z,11.88
2023-04-16T01:11:23.149Z,11.89
2023-04-16T01:13:52.883Z,11.87
2023-04-16T01:16:22.687Z,11.84
2023-04-16T01:18:53.507Z,11.82
2023-04-16T01:21:24.627Z,11.84
2023-04-16T01:23:55.773Z,11.84
2023-04-16T01:26:26.725Z,11.83
2023-04-16T01:28:56.576Z,11.85
2023-04-16T01:31:27.629Z,11.87
2023-04-16T01:34:26.490Z,11.92
2023-04-16T01:36:56.342Z,11.96
2023-04-16T01:39:27.507Z,12.01
2023-04-16T01:41:57.369Z,12.06
2023-04-16T01:44:28.351Z,12.10
2023-04-16T01:46:58.357Z,12.14
2023-04-16T01:49:31.041Z,12.17
2023-04-16T01:52:05.861Z,12.19
2023-04-16T01:54:36.519Z,12.21
2023-04-16T01:57:07.055Z,12.23
2023-04-16T01:59:42.208Z,12.24
2023-04-16T02:02:16.857Z,12.25
2023-04-16T02:04:47.030Z,12.26
2023-04-16T02:07:16.749Z,12.27
2023-04-16T02:09:46.563Z,12.28
2023-04-16T02:12:16.979Z,12.30
2023-04-16T02:14:46.978Z,12.30
2023-04-16T02:17:18.065Z,12.30
2023-04-16T02:19:50.517Z,12.28
2023-04-16T02:22:21.649Z,12.24
2023-04-16T02:24:52.122Z,12.21
2023-04-16T02:27:22.759Z,12.19
2023-04-16T02:29:53.643Z,12.20
2023-04-16T02:32:23.480Z,12.20
2023-04-16T02:34:53.030Z,12.21
2023-04-16T02:37:23.093Z,12.20
2023-04-16T02:39:53.720Z,12.16
2023-04-16T02:42:24.592Z,12.13
2023-04-16T02:44:54.634Z,12.12
2023-04-16T02:47:24.384Z,12.11
2023-04-16T02:49:53.913Z,12.07
2023-04-16T02:52:25.204Z,12.02
2023-04-16T02:54:56.556Z,11.98
2023-04-16T02:57:27.537Z,11.95
2023-04-16T02:59:59.931Z,11.96
2023-04-16T03:02:29.808Z,11.98
2023-04-16T03:04:59.687Z,12.00
2023-04-16T03:07:30.902Z,12.04
2023-04-16T03:10:00.760Z,12.08
2023-04-16T03:12:32.758Z,12.12
2023-04-16T03:15:02.879Z,12.14
2023-04-16T03:17:32.744Z,12.17
2023-04-16T03:20:02.516Z,12.20
2023-04-16T03:22:33.564Z,12.23
2023-04-16T03:25:03.641Z,12.25
2023-04-16T03:27:35.167Z,12.26
2023-04-16T03:30:12.604Z,12.27
2023-04-16T03:32:43.153Z,12.29
2023-04-16T03:35:13.095Z,12.29
2023-04-16T03:37:42.742Z,12.30
2023-04-16T03:40:14.094Z,12.32
2023-04-16T03:42:49.364Z,12.34
2023-04-16T03:45:20.203Z,12.36
2023-04-16T03:47:53.040Z,12.38
2023-04-16T03:50:25.175Z,12.42
2023-04-16T03:52:55.958Z,12.46
2023-04-16T03:55:38.720Z,12.51
2023-04-16T03:58:08.854Z,12.57
2023-04-16T04:00:43.990Z,12.65
2023-04-16T04:06:28.229Z,12.83
2023-04-16T04:08:58.757Z,12.91
2023-04-16T04:11:28.516Z,12.99
2023-04-16T04:14:00.663Z,13.07
2023-04-16T04:16:31.815Z,13.14
2023-04-16T04:19:05.260Z,13.20
2023-04-16T04:21:35.120Z,13.26
2023-04-16T04:24:06.984Z,13.31
2023-04-16T04:26:36.867Z,13.35
2023-04-16T04:29:06.796Z,13.39
2023-04-16T04:31:37.781Z,13.42
2023-04-16T04:34:07.998Z,13.46
2023-04-16T04:36:39.596Z,13.50
2023-04-16T04:39:09.391Z,13.54
2023-04-16T04:41:39.384Z,13.61
2023-04-16T04:44:09.946Z,13.66
2023-04-16T04:46:42.907Z,13.72
2023-04-16T04:49:13.118Z,13.77
2023-04-16T04:51:43.639Z,13.82
2023-04-16T04:54:13.456Z,13.87
2023-04-16T04:56:47.596Z,13.95
2023-04-16T04:59:17.706Z,14.03
2023-04-16T05:01:51.681Z,14.10
2023-04-16T05:04:21.510Z,14.19
2023-04-16T05:06:52.047Z,14.29
2023-04-16T05:09:23.407Z,14.41
2023-04-16T05:11:56.071Z,14.54
2023-04-16T05:14:26.911Z,14.68
2023-04-16T05:16:57.558Z,14.83
2023-04-16T05:19:27.160Z,14.97
2023-04-16T05:21:57.035Z,15.10
2023-04-16T05:24:27.712Z,15.25
2023-04-16T05:26:58.434Z,15.38
2023-04-16T05:29:42.529Z,15.48
2023-04-16T05:32:17.183Z,15.60
2023-04-16T05:34:47.206Z,15.71
2023-04-16T05:37:17.893Z,15.83
2023-04-16T05:39:49.733Z,15.94
2023-04-16T05:42:21.686Z,16.05
2023-04-16T05:44:53.357Z,16.16
2023-04-16T05:47:23.028Z,16.28
2023-04-16T05:49:52.832Z,16.41
2023-04-16T05:52:22.506Z,16.54
2023-04-16T05:54:52.074Z,16.67
2023-04-16T05:57:23.024Z,16.82
2023-04-16T05:59:53.063Z,16.91
2023-04-16T06:02:24.502Z,17.05
2023-04-16T06:04:57.071Z,17.24
2023-04-16T06:07:28.754Z,17.37
2023-04-16T06:10:02.175Z,17.45
2023-04-16T06:12:33.592Z,17.56
2023-04-16T06:15:05.148Z,17.63
2023-04-16T06:17:38.662Z,17.70
2023-04-16T06:20:08.973Z,17.69
2023-04-16T06:22:40.104Z,17.73
2023-04-16T06:25:10.433Z,17.74
2023-04-16T06:27:40.062Z,17.76
2023-04-16T06:30:14.572Z,17.75
2023-04-16T06:32:44.685Z,17.74
2023-04-16T06:35:14.390Z,17.65
2023-04-16T06:37:44.414Z,17.57
2023-04-16T06:40:16.519Z,17.52
2023-04-16T06:42:47.053Z,17.50
2023-04-16T06:45:17.039Z,17.43
2023-04-16T06:47:48.400Z,17.41
2023-04-16T06:50:22.395Z,17.39
2023-04-16T06:52:56.191Z,17.31
2023-04-16T06:55:27.489Z,17.26
2023-04-16T06:57:59.674Z,17.27
2023-04-16T07:00:31.461Z,17.34
2023-04-16T07:03:09.122Z,17.36
2023-04-16T07:05:39.966Z,17.39
2023-04-16T07:08:11.464Z,17.52
2023-04-16T07:10:41.157Z,17.79
2023-04-16T07:13:10.788Z,18.00
2023-04-16T07:15:40.902Z,18.05
2023-04-16T07:18:12.091Z,18.01
2023-04-16T07:20:41.716Z,17.98
2023-04-16T07:23:11.605Z,17.92
2023-04-16T07:25:42.707Z,17.87
2023-04-16T07:28:12.431Z,17.82
2023-04-16T07:30:47.172Z,17.74
2023-04-16T07:33:19.490Z,17.71
2023-04-16T07:35:49.442Z,17.67
2023-04-16T07:38:19.281Z,17.59
2023-04-16T07:41:02.279Z,17.56
2023-04-16T07:43:33.321Z,17.52
2023-04-16T07:46:03.800Z,17.46
2023-04-16T07:48:33.982Z,17.42
2023-04-16T07:51:04.054Z,17.30
2023-04-16T07:53:34.985Z,17.28
2023-04-16T07:56:07.331Z,17.32
2023-04-16T07:58:36.850Z,17.36
2023-04-16T08:01:06.603Z,17.30
2023-04-16T08:03:36.905Z,17.33
2023-04-16T08:06:07.077Z,17.42
2023-04-16T08:08:38.413Z,17.50
2023-04-16T08:11:08.859Z,17.58
2023-04-16T08:13:38.860Z,17.64
2023-04-16T08:16:18.309Z,17.68
2023-04-16T08:18:48.709Z,17.63
2023-04-16T08:21:35.461Z,17.59
2023-04-16T08:24:05.663Z,17.54
2023-04-16T08:26:38.848Z,17.46
2023-04-16T08:29:08.602Z,17.39
2023-04-16T08:31:38.594Z,17.29
2023-04-16T08:34:08.372Z,17.17
2023-04-16T08:36:37.945Z,17.05
2023-04-16T08:39:08.030Z,16.94
2023-04-16T08:41:42.452Z,16.77
2023-04-16T08:44:42.892Z,16.46
2023-04-16T08:47:16.093Z,16.10
2023-04-16T08:49:48.921Z,15.79
2023-04-16T08:52:20.555Z,15.61
2023-04-16T08:55:13.568Z,15.56
2023-04-16T08:57:58.552Z,15.55
2023-04-16T09:00:33.860Z,15.59
2023-04-16T09:03:05.004Z,15.67
2023-04-16T09:05:38.968Z,15.84
2023-04-16T09:08:08.849Z,16.10
2023-04-16T09:10:40.053Z,16.42
2023-04-16T09:13:17.036Z,16.61
2023-04-16T09:15:47.553Z,16.78
2023-04-16T09:18:18.791Z,17.07
2023-04-16T09:20:52.479Z,17.25
2023-04-16T09:23:25.205Z,17.36
2023-04-16T09:25:55.676Z,17.44
2023-04-16T09:28:49.029Z,17.50
2023-04-16T09:31:19.973Z,17.55
2023-04-16T09:34:04.241Z,17.64
2023-04-16T09:36:36.138Z,17.81
2023-04-16T09:39:06.226Z,17.99
2023-04-16T09:41:40.997Z,18.19
2023-04-16T09:44:10.613Z,18.46
2023-04-16T09:46:44.678Z,18.50
2023-04-16T09:52:54.263Z,18.85
2023-04-16T09:55:45.899Z,19.06
2023-04-16T09:58:21.223Z,19.21
2023-04-16T10:01:13.199Z,19.31
2023-04-16T10:03:45.916Z,19.47
2023-04-16T10:06:21.913Z,19.61
2023-04-16T10:09:00.529Z,19.66
2023-04-16T10:11:33.193Z,19.63
2023-04-16T10:15:19.141Z,19.64
2023-04-16T10:26:33.103Z,20.80
2023-04-16T10:30:15.573Z,21.29
2023-04-16T11:11:10.897Z,20.78
2023-04-16T11:14:15.817Z,20.69
2023-04-16T11:16:47.732Z,20.48
2023-04-16T11:19:22.679Z,20.43
2023-04-16T11:21:59.262Z,20.47
2023-04-16T11:24:59.916Z,20.74
2023-04-16T11:27:33.521Z,21.23
2023-04-16T11:30:13.325Z,21.80
2023-04-16T11:32:45.036Z,22.34
2023-04-16T11:35:17.859Z,22.70
2023-04-16T11:37:57.818Z,22.79
2023-04-16T11:40:31.871Z,22.47
2023-04-16T11:43:22.161Z,22.05
2023-04-16T11:45:59.540Z,21.69
2023-04-16T11:49:06.247Z,21.41
2023-04-16T11:51:49.760Z,20.99
2023-04-16T11:54:26.428Z,20.70
2023-04-16T11:56:56.195Z,20.45
2023-04-16T12:00:01.762Z,20.15
2023-04-16T12:03:06.350Z,19.78
2023-04-16T12:05:53.824Z,19.48
2023-04-16T12:08:33.014Z,19.28
2023-04-16T12:11:04.605Z,19.21
2023-04-16T12:13:44.564Z,19.13
2023-04-16T12:16:35.734Z,19.03
2023-04-16T12:19:15.426Z,18.90
2023-04-16T12:21:51.083Z,18.78
2023-04-16T12:24:25.547Z,18.60
2023-04-16T12:27:42.836Z,18.53
2023-04-16T12:30:15.903Z,18.36
2023-04-16T12:32:53.547Z,18.29
2023-04-16T12:35:40.309Z,18.20
2023-04-16T12:38:12.261Z,18.14
2023-04-16T12:40:42.880Z,18.10
2023-04-16T12:43:13.607Z,18.07
2023-04-16T12:45:46.570Z,18.10
2023-04-16T12:48:17.334Z,18.14
2023-04-16T12:50:49.251Z,18.15
2023-04-16T12:53:20.967Z,18.15
2023-04-16T12:55:56.807Z,18.21
2023-04-16T12:58:39.234Z,18.27
2023-04-16T13:01:14.509Z,18.27
2023-04-16T13:03:45.740Z,18.21
2023-04-16T13:06:22.877Z,18.15
2023-04-16T13:08:52.768Z,18.17
2023-04-16T13:11:25.320Z,18.20
2023-04-16T13:13:54.807Z,18.24
2023-04-16T13:16:24.527Z,18.26
2023-04-16T13:18:54.151Z,18.29
2023-04-16T13:21:24.015Z,18.30
2023-04-16T13:23:54.214Z,18.32
2023-04-16T13:26:24.510Z,18.45
2023-04-16T13:28:54.977Z,18.86
2023-04-16T13:31:26.310Z,19.58
2023-04-16T13:33:56.617Z,20.29
2023-04-16T13:36:29.038Z,20.76
2023-04-16T13:39:20.156Z,21.02
2023-04-16T13:41:56.943Z,21.51
2023-04-16T13:44:26.598Z,22.15
2023-04-16T13:47:03.777Z,22.28
2023-04-16T13:49:37.972Z,22.57
2023-04-16T13:52:07.661Z,22.86
2023-04-16T13:54:44.241Z,22.64
2023-04-16T13:57:23.097Z,22.45
2023-04-16T13:59:53.057Z,22.24
2023-04-16T14:02:22.964Z,21.99
2023-04-16T14:05:08.866Z,21.72
2023-04-16T14:07:39.290Z,21.59
2023-04-16T14:10:09.871Z,21.40
2023-04-16T14:12:57.559Z,21.18
2023-04-16T14:15:30.297Z,20.93
2023-04-16T14:18:01.461Z,20.73
2023-04-16T14:20:31.437Z,20.59
2023-04-16T14:23:01.641Z,20.45
2023-04-16T14:25:35.960Z,20.29
2023-04-16T14:28:06.677Z,20.13
2023-04-16T14:30:36.305Z,20.01
2023-04-16T14:33:07.760Z,19.67
2023-04-16T14:35:37.483Z,19.36
2023-04-16T14:38:07.345Z,19.11
2023-04-16T14:40:38.836Z,18.97
2023-04-16T14:43:08.990Z,18.75
2023-04-16T14:45:39.440Z,18.68
2023-04-16T14:48:09.092Z,18.67
2023-04-16T14:50:44.943Z,18.84
2023-04-16T14:53:14.859Z,18.91
2023-04-16T14:55:49.200Z,18.98
2023-04-16T14:58:19.105Z,19.01
2023-04-16T15:00:50.611Z,19.20
2023-04-16T15:03:22.589Z,19.28
2023-04-16T15:06:13.857Z,19.17
2023-04-16T15:08:44.320Z,18.99
2023-04-16T15:11:21.224Z,18.82
2023-04-16T15:14:13.613Z,18.64
2023-04-16T15:16:43.423Z,18.50
2023-04-16T15:19:17.990Z,18.37
2023-04-16T15:21:49.292Z,18.16
2023-04-16T15:24:19.634Z,18.01
2023-04-16T15:26:51.780Z,17.89
2023-04-16T15:29:24.553Z,17.76
2023-04-16T15:31:54.400Z,17.64
2023-04-16T15:34:28.947Z,17.36
2023-04-16T15:37:14.086Z,17.10
2023-04-16T15:39:45.098Z,16.96
2023-04-16T15:42:14.864Z,16.79
2023-04-16T15:44:44.372Z,16.65
2023-04-16T15:47:15.368Z,16.48
2023-04-16T15:50:08.990Z,16.37
2023-04-16T15:52:39.624Z,16.30
2023-04-16T15:55:10.191Z,16.15
2023-04-16T15:57:41.279Z,16.04
2023-04-16T16:00:17.276Z,15.93
2023-04-16T16:02:48.106Z,15.86
2023-04-16T16:05:18.768Z,15.76
2023-04-16T16:07:48.592Z,15.62
2023-04-16T16:10:18.019Z,15.45
2023-04-16T16:12:48.263Z,15.25
2023-04-16T16:15:21.406Z,15.13
2023-04-16T16:17:53.562Z,15.06
2023-04-16T16:20:23.536Z,14.94
2023-04-16T16:22:56.655Z,14.77
2023-04-16T16:25:26.158Z,14.64
2023-04-16T16:27:55.579Z,14.57
2023-04-16T16:30:27.882Z,14.51
2023-04-16T16:33:00.366Z,14.46
2023-04-16T16:35:29.780Z,14.39
2023-04-16T16:37:59.714Z,14.30
2023-04-16T16:40:29.546Z,14.20
2023-04-16T16:43:01.542Z,14.14
2023-04-16T16:45:31.968Z,14.07
2023-04-16T16:48:03.645Z,14.01
2023-04-16T16:50:33.384Z,13.94
2023-04-16T16:53:03.527Z,13.89
2023-04-16T16:55:32.928Z,13.85
2023-04-16T16:58:02.950Z,13.83
2023-04-16T17:00:38.661Z,13.80
2023-04-16T17:03:09.603Z,13.73
2023-04-16T17:05:40.635Z,13.68
2023-04-16T17:08:14.120Z,13.62
2023-04-16T17:10:46.402Z,13.57
2023-04-16T17:13:20.427Z,13.52
2023-04-16T17:15:49.929Z,13.48
2023-04-16T17:18:19.473Z,13.42
2023-04-16T17:20:49.613Z,13.32
2023-04-16T17:23:20.056Z,13.25
2023-04-16T17:25:55.159Z,13.18
2023-04-16T17:28:26.406Z,13.14
2023-04-16T17:30:58.496Z,13.06
2023-04-16T17:33:29.384Z,13.00
2023-04-16T17:35:58.814Z,12.93
2023-04-16T17:38:28.131Z,12.85
2023-04-16T17:40:58.267Z,12.80
2023-04-16T17:43:28.459Z,12.73
2023-04-16T17:45:58.141Z,12.66
2023-04-16T17:48:29.944Z,12.62
2023-04-16T17:50:59.329Z,12.58
2023-04-16T17:53:28.574Z,12.55
2023-04-16T17:55:57.883Z,12.49
2023-04-16T17:58:27.164Z,12.44
2023-04-16T18:00:56.399Z,12.40
2023-04-16T18:03:25.921Z,12.36
2023-04-16T18:05:55.495Z,12.32
2023-04-16T18:08:25.879Z,12.23
2023-04-16T18:10:56.699Z,12.18
2023-04-16T18:13:28.308Z,12.13
2023-04-16T18:15:57.815Z,12.10
2023-04-16T18:18:27.626Z,12.04
2023-04-16T18:20:59.430Z,12.00
2023-04-16T18:23:28.770Z,11.96
2023-04-16T18:25:58.802Z,11.89
2023-04-16T18:28:29.349Z,11.82
2023-04-16T18:31:03.900Z,11.75
2023-04-16T18:33:53.965Z,11.72
2023-04-16T18:36:22.998Z,11.70
2023-04-16T18:38:59.989Z,11.69
2023-04-16T18:41:31.455Z,11.66
2023-04-16T18:44:00.942Z,11.63
2023-04-16T18:46:30.283Z,11.59
2023-04-16T18:48:59.695Z,11.58
2023-04-16T18:51:28.988Z,11.56
2023-04-16T18:53:59.703Z,11.52
2023-04-16T18:56:34.668Z,11.47
2023-04-16T18:59:04.279Z,11.44
2023-04-16T19:01:34.717Z,11.43
2023-04-16T19:04:04.232Z,11.42
2023-04-16T19:06:33.568Z,11.44
2023-04-16T19:09:02.920Z,11.47
2023-04-16T19:11:32.409Z,11.48
2023-04-16T19:14:03.424Z,11.48
2023-04-16T19:16:32.934Z,11.49
2023-04-16T19:19:02.502Z,11.51
2023-04-16T19:21:34.865Z,11.54
2023-04-16T19:24:04.463Z,11.56
2023-04-16T19:26:33.814Z,11.61
2023-04-16T19:29:03.591Z,11.64
2023-04-16T19:31:33.350Z,11.67
2023-04-16T19:34:02.709Z,11.72
2023-04-16T19:36:32.549Z,11.77
2023-04-16T19:39:02.512Z,11.80
2023-04-16T19:41:32.022Z,11.80
2023-04-16T19:44:01.457Z,11.83
2023-04-16T19:46:30.863Z,11.83
2023-04-16T19:49:00.408Z,11.87
2023-04-16T19:51:30.828Z,11.89
2023-04-16T19:54:01.847Z,11.91
2023-04-16T19:56:33.683Z,11.93
2023-04-16T19:59:03.220Z,11.93
2023-04-16T20:01:35.209Z,11.91
2023-04-16T20:04:04.791Z,11.90
2023-04-16T20:06:34.287Z,11.89
2023-04-16T20:09:04.838Z,11.89
2023-04-16T20:11:35.555Z,11.91
2023-04-16T20:14:04.909Z,11.94
2023-04-16T20:16:35.207Z,11.95
2023-04-16T20:19:08.627Z,11.96
2023-04-16T20:21:40.420Z,11.94
2023-04-16T20:24:10.768Z,11.90
2023-04-16T20:26:40.195Z,11.91
2023-04-16T20:29:10.371Z,11.90
2023-04-16T20:31:41.658Z,11.86
2023-04-16T20:34:10.993Z,11.82
2023-04-16T20:36:40.592Z,11.80
2023-04-16T20:39:11.100Z,11.82
2023-04-16T20:41:44.018Z,11.83
2023-04-16T20:44:18.919Z,11.83
2023-04-16T20:46:49.990Z,11.84
2023-04-16T20:49:19.514Z,11.86
2023-04-16T20:51:48.926Z,11.86
2023-04-16T20:54:18.377Z,11.87
2023-04-16T20:56:47.744Z,11.89
2023-04-16T20:59:17.209Z,11.90
2023-04-16T21:01:47.774Z,11.91
2023-04-16T21:04:17.302Z,11.92
2023-04-16T21:06:47.079Z,11.91
2023-04-16T21:09:16.732Z,11.91
2023-04-16T21:11:46.357Z,11.93
2023-04-16T21:14:15.791Z,11.95
2023-04-16T21:16:45.114Z,11.95
2023-04-16T21:19:14.519Z,11.94
2023-04-16T21:21:43.891Z,11.93
2023-04-16T21:24:13.481Z,11.91
2023-04-16T21:26:42.830Z,11.88
2023-04-16T21:29:12.446Z,11.87
2023-04-16T21:31:41.993Z,11.87
2023-04-16T21:34:12.340Z,11.85
2023-04-16T21:36:42.906Z,11.86
2023-04-16T21:39:12.510Z,11.85
2023-04-16T21:41:41.958Z,11.85
2023-04-16T21:44:11.207Z,11.84
2023-04-16T21:46:43.689Z,11.84
2023-04-16T21:49:13.331Z,11.84
2023-04-16T21:51:43.188Z,11.85
2023-04-16T21:54:13.418Z,11.86
2023-04-16T21:56:42.710Z,11.85
2023-04-16T21:59:12.161Z,11.83
2023-04-16T22:01:41.776Z,11.80
2023-04-16T22:04:12.344Z,11.79
2023-04-16T22:06:43.151Z,11.80
2023-04-16T22:09:12.696Z,11.80
2023-04-16T22:11:42.261Z,11.79
2023-04-16T22:14:11.933Z,11.77
2023-04-16T22:16:42.059Z,11.78
2023-04-16T22:19:11.775Z,11.79
2023-04-16T22:21:42.772Z,11.79
2023-04-16T22:24:12.589Z,11.77
2023-04-16T22:26:43.330Z,11.79
2023-04-16T22:29:14.670Z,11.78
2023-04-16T22:31:43.992Z,11.74
2023-04-16T22:34:14.487Z,11.73
2023-04-16T22:36:46.458Z,11.72
2023-04-16T22:39:15.822Z,11.70
2023-04-16T22:41:45.567Z,11.68
2023-04-16T22:44:16.300Z,11.67
2023-04-16T22:46:46.938Z,11.67
2023-04-16T22:49:16.180Z,11.67
2023-04-16T22:51:49.340Z,11.66
2023-04-16T22:54:18.709Z,11.64
2023-04-16T22:56:49.237Z,11.63
2023-04-16T22:59:21.493Z,11.62
2023-04-16T23:01:52.344Z,11.62
2023-04-16T23:04:21.958Z,11.60
2023-04-16T23:09:22.524Z,11.60
2023-04-16T23:11:51.944Z,11.59
2023-04-16T23:14:21.466Z,11.59
2023-04-16T23:16:50.807Z,11.62
2023-04-16T23:19:20.151Z,11.62
2023-04-16T23:21:49.474Z,11.64
2023-04-16T23:24:18.817Z,11.64
2023-04-16T23:26:48.323Z,11.66
2023-04-16T23:29:17.671Z,11.66
2023-04-16T23:31:47.414Z,11.65
2023-04-16T23:34:16.974Z,11.63
2023-04-16T23:36:47.110Z,11.63
2023-04-16T23:39:18.053Z,11.63
2023-04-16T23:41:47.761Z,11.61
2023-04-16T23:44:21.998Z,11.63
2023-04-16T23:46:52.714Z,11.63
2023-04-16T23:49:24.866Z,11.63
2023-04-16T23:51:54.592Z,11.62
2023-04-16T23:54:24.464Z,11.61
2023-04-16T23:56:53.921Z,11.59
2023-04-16T23:59:24.358Z,11.60
